Terminal Aerodrome Forecast
Issued by NWS Wakefield, VA

Home | Current Version | Previous Version | Text Only | Print | Product List | Glossary On
Versions: 1 2 3 4 5 6 7 8 9 10 11 12 13 14 15 16 17 18 19
000
FTUS41 KAKQ 012100 AAB
TAFSBY
TAF AMD
KSBY 012100Z 0121/0218 33004KT 3SM -RA BR BKN004 OVC015
      TEMPO 0121/0124 1SM -FZRA OVC010
     FM020000 20007KT 2SM -DZ BR OVC004
     FM020700 23009KT 3SM BR SCT005 OVC012
     FM021400 27010KT P6SM SCT020 BKN035=

USA.gov is the U.S. government's official web portal to all federal, state and local government web resources and services.